sensor_id;sensor_type;location;lat;lon;timestamp;P1;durP1;ratioP1;P2;durP2;ratioP2
31724;SDS011;18306;40.960;14.836;2024-02-04T00:01:24;46.17;;;35.35;;
31724;SDS011;18306;40.960;14.836;2024-02-04T00:03:51;52.92;;;40.08;;
31724;SDS011;18306;40.960;14.836;2024-02-04T00:06:18;47.13;;;36.03;;
31724;SDS011;18306;40.960;14.836;2024-02-04T00:08:45;42.67;;;31.58;;
31724;SDS011;18306;40.960;14.836;2024-02-04T00:11:12;44.95;;;33.55;;
31724;SDS011;18306;40.960;14.836;2024-02-04T00:13:39;52.00;;;37.10;;
31724;SDS011;18306;40.960;14.836;2024-02-04T00:16:06;42.17;;;31.90;;
31724;SDS011;18306;40.960;14.836;2024-02-04T00:18:33;50.20;;;39.43;;
31724;SDS011;18306;40.960;14.836;2024-02-04T00:21:00;41.92;;;31.05;;
31724;SDS011;18306;40.960;14.836;2024-02-04T00:23:27;48.03;;;33.97;;
31724;SDS011;18306;40.960;14.836;2024-02-04T00:25:54;37.47;;;28.20;;
31724;SDS011;18306;40.960;14.836;2024-02-04T00:28:21;45.75;;;34.63;;
31724;SDS011;18306;40.960;14.836;2024-02-04T00:30:48;41.40;;;30.80;;
31724;SDS011;18306;40.960;14.836;2024-02-04T00:33:16;49.95;;;35.90;;
31724;SDS011;18306;40.960;14.836;2024-02-04T00:35:45;49.50;;;38.45;;
31724;SDS011;18306;40.960;14.836;2024-02-04T00:38:12;50.08;;;37.50;;
31724;SDS011;18306;40.960;14.836;2024-02-04T00:40:39;44.92;;;33.05;;
31724;SDS011;18306;40.960;14.836;2024-02-04T00:43:07;39.22;;;29.80;;
31724;SDS011;18306;40.960;14.836;2024-02-04T00:45:34;38.20;;;27.52;;
31724;SDS011;18306;40.960;14.836;2024-02-04T00:48:05;50.50;;;37.65;;
31724;SDS011;18306;40.960;14.836;2024-02-04T00:50:32;45.92;;;33.13;;
31724;SDS011;18306;40.960;14.836;2024-02-04T00:52:59;41.15;;;29.85;;
31724;SDS011;18306;40.960;14.836;2024-02-04T00:55:33;45.13;;;32.03;;
31724;SDS011;18306;40.960;14.836;2024-02-04T00:58:00;42.50;;;30.40;;
31724;SDS011;18306;40.960;14.836;2024-02-04T01:00:30;41.08;;;30.08;;
31724;SDS011;18306;40.960;14.836;2024-02-04T01:02:57;39.63;;;27.02;;
31724;SDS011;18306;40.960;14.836;2024-02-04T01:05:24;47.63;;;31.70;;
31724;SDS011;18306;40.960;14.836;2024-02-04T01:07:51;41.95;;;28.05;;
31724;SDS011;18306;40.960;14.836;2024-02-04T01:10:18;36.60;;;25.50;;
31724;SDS011;18306;40.960;14.836;2024-02-04T01:12:45;40.47;;;27.00;;
31724;SDS011;18306;40.960;14.836;2024-02-04T01:15:12;42.97;;;30.63;;
31724;SDS011;18306;40.960;14.836;2024-02-04T01:17:42;31.98;;;23.30;;
31724;SDS011;18306;40.960;14.836;2024-02-04T01:20:09;38.55;;;27.77;;
31724;SDS011;18306;40.960;14.836;2024-02-04T01:22:36;52.25;;;37.67;;
31724;SDS011;18306;40.960;14.836;2024-02-04T01:25:04;42.20;;;30.55;;
31724;SDS011;18306;40.960;14.836;2024-02-04T01:27:31;40.43;;;29.87;;
31724;SDS011;18306;40.960;14.836;2024-02-04T01:29:58;36.85;;;27.50;;
31724;SDS011;18306;40.960;14.836;2024-02-04T01:32:25;38.30;;;26.40;;
31724;SDS011;18306;40.960;14.836;2024-02-04T01:34:52;34.42;;;24.88;;
31724;SDS011;18306;40.960;14.836;2024-02-04T01:37:19;35.10;;;24.23;;
31724;SDS011;18306;40.960;14.836;2024-02-04T01:39:46;32.50;;;22.55;;
31724;SDS011;18306;40.960;14.836;2024-02-04T01:42:13;25.65;;;19.67;;
31724;SDS011;18306;40.960;14.836;2024-02-04T01:44:40;25.48;;;17.77;;
31724;SDS011;18306;40.960;14.836;2024-02-04T01:47:08;27.90;;;20.70;;
31724;SDS011;18306;40.960;14.836;2024-02-04T01:49:35;26.65;;;18.63;;
31724;SDS011;18306;40.960;14.836;2024-02-04T01:52:03;25.45;;;19.67;;
31724;SDS011;18306;40.960;14.836;2024-02-04T01:54:32;23.07;;;17.83;;
31724;SDS011;18306;40.960;14.836;2024-02-04T01:56:59;22.02;;;15.27;;
31724;SDS011;18306;40.960;14.836;2024-02-04T01:59:30;22.50;;;15.73;;
31724;SDS011;18306;40.960;14.836;2024-02-04T02:02:00;19.10;;;14.20;;
31724;SDS011;18306;40.960;14.836;2024-02-04T02:04:27;19.23;;;14.02;;
31724;SDS011;18306;40.960;14.836;2024-02-04T02:06:54;19.65;;;14.20;;
31724;SDS011;18306;40.960;14.836;2024-02-04T02:09:22;17.40;;;13.45;;
31724;SDS011;18306;40.960;14.836;2024-02-04T02:11:54;16.33;;;12.25;;
31724;SDS011;18306;40.960;14.836;2024-02-04T02:14:28;18.05;;;13.38;;
31724;SDS011;18306;40.960;14.836;2024-02-04T02:17:00;18.73;;;13.67;;
31724;SDS011;18306;40.960;14.836;2024-02-04T02:22:21;16.98;;;11.50;;
31724;SDS011;18306;40.960;14.836;2024-02-04T02:24:58;19.33;;;14.77;;
31724;SDS011;18306;40.960;14.836;2024-02-04T02:27:26;17.30;;;13.27;;
31724;SDS011;18306;40.960;14.836;2024-02-04T02:29:53;18.05;;;12.95;;
31724;SDS011;18306;40.960;14.836;2024-02-04T02:32:20;17.30;;;12.80;;
31724;SDS011;18306;40.960;14.836;2024-02-04T02:34:48;18.52;;;13.95;;
31724;SDS011;18306;40.960;14.836;2024-02-04T02:40:21;19.17;;;14.05;;
31724;SDS011;18306;40.960;14.836;2024-02-04T02:42:53;19.27;;;15.38;;
31724;SDS011;18306;40.960;14.836;2024-02-04T02:45:23;17.20;;;13.57;;
31724;SDS011;18306;40.960;14.836;2024-02-04T02:47:52;17.03;;;13.30;;
31724;SDS011;18306;40.960;14.836;2024-02-04T02:50:21;20.67;;;15.95;;
31724;SDS011;18306;40.960;14.836;2024-02-04T02:52:48;18.67;;;13.60;;
31724;SDS011;18306;40.960;14.836;2024-02-04T02:55:16;138.73;;;67.60;;
31724;SDS011;18306;40.960;14.836;2024-02-04T02:57:43;33.03;;;24.85;;
31724;SDS011;18306;40.960;14.836;2024-02-04T03:00:10;25.13;;;19.67;;
31724;SDS011;18306;40.960;14.836;2024-02-04T03:02:37;27.90;;;22.37;;
31724;SDS011;18306;40.960;14.836;2024-02-04T03:05:05;30.45;;;21.92;;
31724;SDS011;18306;40.960;14.836;2024-02-04T03:07:32;33.25;;;25.35;;
31724;SDS011;18306;40.960;14.836;2024-02-04T03:09:59;23.30;;;17.70;;
31724;SDS011;18306;40.960;14.836;2024-02-04T03:12:26;23.53;;;18.47;;
31724;SDS011;18306;40.960;14.836;2024-02-04T03:14:53;23.55;;;18.92;;
31724;SDS011;18306;40.960;14.836;2024-02-04T03:17:20;25.00;;;18.63;;
31724;SDS011;18306;40.960;14.836;2024-02-04T03:19:50;25.58;;;19.38;;
31724;SDS011;18306;40.960;14.836;2024-02-04T03:22:18;22.43;;;17.97;;
31724;SDS011;18306;40.960;14.836;2024-02-04T03:24:46;24.27;;;18.73;;
31724;SDS011;18306;40.960;14.836;2024-02-04T03:27:13;22.90;;;17.35;;
31724;SDS011;18306;40.960;14.836;2024-02-04T03:29:41;20.63;;;14.68;;
31724;SDS011;18306;40.960;14.836;2024-02-04T03:32:08;20.55;;;14.68;;
31724;SDS011;18306;40.960;14.836;2024-02-04T03:34:36;17.83;;;14.50;;
31724;SDS011;18306;40.960;14.836;2024-02-04T03:37:05;21.33;;;15.43;;
31724;SDS011;18306;40.960;14.836;2024-02-04T03:39:32;22.17;;;16.52;;
31724;SDS011;18306;40.960;14.836;2024-02-04T03:41:59;22.17;;;17.00;;
31724;SDS011;18306;40.960;14.836;2024-02-04T03:44:27;19.85;;;15.70;;
31724;SDS011;18306;40.960;14.836;2024-02-04T03:46:54;18.60;;;14.57;;
31724;SDS011;18306;40.960;14.836;2024-02-04T03:49:21;18.83;;;14.45;;
31724;SDS011;18306;40.960;14.836;2024-02-04T03:51:48;18.83;;;14.95;;
31724;SDS011;18306;40.960;14.836;2024-02-04T03:54:15;16.40;;;13.02;;
31724;SDS011;18306;40.960;14.836;2024-02-04T03:56:42;17.27;;;13.32;;
31724;SDS011;18306;40.960;14.836;2024-02-04T03:59:09;16.90;;;13.18;;
31724;SDS011;18306;40.960;14.836;2024-02-04T04:01:37;18.85;;;14.32;;
31724;SDS011;18306;40.960;14.836;2024-02-04T04:04:04;15.95;;;12.43;;
31724;SDS011;18306;40.960;14.836;2024-02-04T04:06:31;15.35;;;11.50;;
31724;SDS011;18306;40.960;14.836;2024-02-04T04:08:58;16.05;;;12.00;;
31724;SDS011;18306;40.960;14.836;2024-02-04T04:11:25;15.20;;;12.13;;
31724;SDS011;18306;40.960;14.836;2024-02-04T04:13:52;15.50;;;11.68;;
31724;SDS011;18306;40.960;14.836;2024-02-04T04:16:22;16.10;;;12.07;;
31724;SDS011;18306;40.960;14.836;2024-02-04T04:18:49;16.30;;;13.65;;
31724;SDS011;18306;40.960;14.836;2024-02-04T04:21:17;16.23;;;13.18;;
31724;SDS011;18306;40.960;14.836;2024-02-04T04:23:44;16.05;;;12.85;;
31724;SDS011;18306;40.960;14.836;2024-02-04T04:26:11;16.58;;;11.98;;
31724;SDS011;18306;40.960;14.836;2024-02-04T04:28:37;17.33;;;13.18;;
31724;SDS011;18306;40.960;14.836;2024-02-04T04:31:05;18.90;;;12.98;;
31724;SDS011;18306;40.960;14.836;2024-02-04T04:33:32;16.20;;;11.77;;
31724;SDS011;18306;40.960;14.836;2024-02-04T04:35:59;17.83;;;12.05;;
31724;SDS011;18306;40.960;14.836;2024-02-04T04:38:26;15.93;;;12.25;;
31724;SDS011;18306;40.960;14.836;2024-02-04T04:40:53;23.10;;;19.23;;
31724;SDS011;18306;40.960;14.836;2024-02-04T04:43:20;28.13;;;21.92;;
31724;SDS011;18306;40.960;14.836;2024-02-04T04:45:47;29.80;;;23.85;;
31724;SDS011;18306;40.960;14.836;2024-02-04T04:48:14;34.60;;;28.53;;
31724;SDS011;18306;40.960;14.836;2024-02-04T04:50:41;24.77;;;19.75;;
31724;SDS011;18306;40.960;14.836;2024-02-04T04:53:08;24.23;;;19.07;;
31724;SDS011;18306;40.960;14.836;2024-02-04T04:55:35;24.35;;;19.80;;
31724;SDS011;18306;40.960;14.836;2024-02-04T04:58:02;27.33;;;21.38;;
31724;SDS011;18306;40.960;14.836;2024-02-04T05:00:29;26.63;;;19.17;;
31724;SDS011;18306;40.960;14.836;2024-02-04T05:02:56;25.80;;;20.98;;
31724;SDS011;18306;40.960;14.836;2024-02-04T05:05:23;29.08;;;23.55;;
31724;SDS011;18306;40.960;14.836;2024-02-04T05:07:50;26.40;;;20.93;;
31724;SDS011;18306;40.960;14.836;2024-02-04T05:10:17;29.08;;;23.42;;
31724;SDS011;18306;40.960;14.836;2024-02-04T05:12:44;32.03;;;25.73;;
31724;SDS011;18306;40.960;14.836;2024-02-04T05:15:11;31.37;;;25.13;;
31724;SDS011;18306;40.960;14.836;2024-02-04T05:17:38;34.65;;;26.88;;
31724;SDS011;18306;40.960;14.836;2024-02-04T05:20:05;32.17;;;24.00;;
31724;SDS011;18306;40.960;14.836;2024-02-04T05:22:33;32.72;;;25.75;;
31724;SDS011;18306;40.960;14.836;2024-02-04T05:25:00;32.45;;;24.23;;
31724;SDS011;18306;40.960;14.836;2024-02-04T05:27:28;34.03;;;26.98;;
31724;SDS011;18306;40.960;14.836;2024-02-04T05:29:55;41.05;;;32.88;;
31724;SDS011;18306;40.960;14.836;2024-02-04T05:32:22;33.67;;;26.38;;
31724;SDS011;18306;40.960;14.836;2024-02-04T05:34:49;29.73;;;22.67;;
31724;SDS011;18306;40.960;14.836;2024-02-04T05:37:16;33.22;;;26.65;;
31724;SDS011;18306;40.960;14.836;2024-02-04T05:39:43;29.23;;;23.25;;
31724;SDS011;18306;40.960;14.836;2024-02-04T05:42:09;26.58;;;22.23;;
31724;SDS011;18306;40.960;14.836;2024-02-04T05:44:36;29.45;;;24.15;;
31724;SDS011;18306;40.960;14.836;2024-02-04T05:47:03;27.67;;;20.00;;
31724;SDS011;18306;40.960;14.836;2024-02-04T05:49:30;27.33;;;20.92;;
31724;SDS011;18306;40.960;14.836;2024-02-04T05:51:57;26.08;;;19.90;;
31724;SDS011;18306;40.960;14.836;2024-02-04T05:54:24;30.45;;;23.15;;
31724;SDS011;18306;40.960;14.836;2024-02-04T05:56:51;24.00;;;19.13;;
31724;SDS011;18306;40.960;14.836;2024-02-04T05:59:18;20.00;;;16.00;;
31724;SDS011;18306;40.960;14.836;2024-02-04T06:01:45;21.00;;;16.15;;
31724;SDS011;18306;40.960;14.836;2024-02-04T06:04:12;22.73;;;16.52;;
31724;SDS011;18306;40.960;14.836;2024-02-04T06:06:39;21.90;;;16.70;;
31724;SDS011;18306;40.960;14.836;2024-02-04T06:09:06;18.23;;;13.90;;
31724;SDS011;18306;40.960;14.836;2024-02-04T06:11:34;27.17;;;19.17;;
31724;SDS011;18306;40.960;14.836;2024-02-04T06:14:01;24.83;;;18.75;;
31724;SDS011;18306;40.960;14.836;2024-02-04T06:16:28;23.02;;;17.95;;
31724;SDS011;18306;40.960;14.836;2024-02-04T06:18:55;28.05;;;22.45;;
31724;SDS011;18306;40.960;14.836;2024-02-04T06:21:24;32.88;;;24.45;;
31724;SDS011;18306;40.960;14.836;2024-02-04T06:23:51;27.23;;;18.65;;
31724;SDS011;18306;40.960;14.836;2024-02-04T06:26:18;20.92;;;16.35;;
31724;SDS011;18306;40.960;14.836;2024-02-04T06:28:45;30.30;;;24.60;;
31724;SDS011;18306;40.960;14.836;2024-02-04T06:31:14;25.47;;;20.13;;
31724;SDS011;18306;40.960;14.836;2024-02-04T06:33:41;19.85;;;15.27;;
31724;SDS011;18306;40.960;14.836;2024-02-04T06:36:09;17.92;;;12.60;;
31724;SDS011;18306;40.960;14.836;2024-02-04T06:38:36;17.42;;;12.88;;
31724;SDS011;18306;40.960;14.836;2024-02-04T06:41:04;18.02;;;12.45;;
31724;SDS011;18306;40.960;14.836;2024-02-04T06:43:31;16.08;;;11.80;;
31724;SDS011;18306;40.960;14.836;2024-02-04T06:45:59;16.48;;;10.93;;
31724;SDS011;18306;40.960;14.836;2024-02-04T06:48:41;14.43;;;11.80;;
31724;SDS011;18306;40.960;14.836;2024-02-04T06:51:14;17.83;;;12.43;;
31724;SDS011;18306;40.960;14.836;2024-02-04T06:53:51;16.58;;;11.52;;
31724;SDS011;18306;40.960;14.836;2024-02-04T06:56:18;20.95;;;13.93;;
31724;SDS011;18306;40.960;14.836;2024-02-04T06:58:45;66.77;;;33.80;;
31724;SDS011;18306;40.960;14.836;2024-02-04T07:01:12;36.40;;;25.90;;
31724;SDS011;18306;40.960;14.836;2024-02-04T07:03:39;42.60;;;27.20;;
31724;SDS011;18306;40.960;14.836;2024-02-04T07:06:06;21.60;;;16.13;;
31724;SDS011;18306;40.960;14.836;2024-02-04T07:08:33;19.85;;;15.35;;
31724;SDS011;18306;40.960;14.836;2024-02-04T07:11:00;23.25;;;15.40;;
31724;SDS011;18306;40.960;14.836;2024-02-04T07:13:27;17.27;;;12.77;;
31724;SDS011;18306;40.960;14.836;2024-02-04T07:15:54;18.63;;;14.05;;
31724;SDS011;18306;40.960;14.836;2024-02-04T07:18:26;18.00;;;13.27;;
31724;SDS011;18306;40.960;14.836;2024-02-04T07:20:53;20.80;;;14.63;;
31724;SDS011;18306;40.960;14.836;2024-02-04T07:23:21;18.02;;;12.18;;
31724;SDS011;18306;40.960;14.836;2024-02-04T07:25:48;21.02;;;16.02;;
31724;SDS011;18306;40.960;14.836;2024-02-04T07:28:15;20.50;;;16.52;;
31724;SDS011;18306;40.960;14.836;2024-02-04T07:30:45;23.35;;;17.40;;
31724;SDS011;18306;40.960;14.836;2024-02-04T07:33:24;23.38;;;17.73;;
31724;SDS011;18306;40.960;14.836;2024-02-04T07:35:52;17.17;;;13.77;;
31724;SDS011;18306;40.960;14.836;2024-02-04T07:38:23;21.10;;;15.95;;
31724;SDS011;18306;40.960;14.836;2024-02-04T07:40:50;17.55;;;12.75;;
31724;SDS011;18306;40.960;14.836;2024-02-04T07:43:17;18.33;;;11.45;;
31724;SDS011;18306;40.960;14.836;2024-02-04T07:45:44;16.73;;;12.07;;
31724;SDS011;18306;40.960;14.836;2024-02-04T07:48:12;13.18;;;9.88;;
31724;SDS011;18306;40.960;14.836;2024-02-04T07:50:39;13.43;;;9.27;;
31724;SDS011;18306;40.960;14.836;2024-02-04T07:53:06;12.63;;;8.73;;
31724;SDS011;18306;40.960;14.836;2024-02-04T07:55:34;12.95;;;8.80;;
31724;SDS011;18306;40.960;14.836;2024-02-04T07:58:02;12.70;;;9.45;;
31724;SDS011;18306;40.960;14.836;2024-02-04T08:00:31;12.57;;;9.50;;
31724;SDS011;18306;40.960;14.836;2024-02-04T08:02:59;13.70;;;9.63;;
31724;SDS011;18306;40.960;14.836;2024-02-04T08:05:34;17.70;;;9.52;;
31724;SDS011;18306;40.960;14.836;2024-02-04T08:08:03;12.55;;;9.57;;
31724;SDS011;18306;40.960;14.836;2024-02-04T08:10:31;13.30;;;9.18;;
31724;SDS011;18306;40.960;14.836;2024-02-04T08:12:58;15.25;;;10.82;;
31724;SDS011;18306;40.960;14.836;2024-02-04T08:15:26;14.00;;;10.02;;
31724;SDS011;18306;40.960;14.836;2024-02-04T08:17:53;13.33;;;9.93;;
31724;SDS011;18306;40.960;14.836;2024-02-04T08:20:20;14.18;;;10.57;;
31724;SDS011;18306;40.960;14.836;2024-02-04T08:22:47;13.63;;;10.17;;
31724;SDS011;18306;40.960;14.836;2024-02-04T08:25:15;14.43;;;10.63;;
31724;SDS011;18306;40.960;14.836;2024-02-04T08:27:42;12.93;;;9.00;;
31724;SDS011;18306;40.960;14.836;2024-02-04T08:30:09;14.43;;;10.20;;
31724;SDS011;18306;40.960;14.836;2024-02-04T08:32:38;16.57;;;11.43;;
31724;SDS011;18306;40.960;14.836;2024-02-04T08:35:05;12.80;;;9.98;;
31724;SDS011;18306;40.960;14.836;2024-02-04T08:37:32;13.88;;;9.15;;
31724;SDS011;18306;40.960;14.836;2024-02-04T08:40:05;14.73;;;8.80;;
31724;SDS011;18306;40.960;14.836;2024-02-04T08:42:32;11.38;;;8.02;;
31724;SDS011;18306;40.960;14.836;2024-02-04T08:45:03;12.57;;;8.68;;
31724;SDS011;18306;40.960;14.836;2024-02-04T08:47:31;14.18;;;9.30;;
31724;SDS011;18306;40.960;14.836;2024-02-04T08:49:58;13.15;;;9.13;;
31724;SDS011;18306;40.960;14.836;2024-02-04T08:52:25;16.17;;;9.55;;
31724;SDS011;18306;40.960;14.836;2024-02-04T08:54:52;12.10;;;8.90;;
31724;SDS011;18306;40.960;14.836;2024-02-04T08:57:19;14.38;;;9.10;;
31724;SDS011;18306;40.960;14.836;2024-02-04T08:59:48;13.88;;;8.88;;
31724;SDS011;18306;40.960;14.836;2024-02-04T09:02:15;11.82;;;8.50;;
31724;SDS011;18306;40.960;14.836;2024-02-04T09:04:42;15.27;;;10.40;;
31724;SDS011;18306;40.960;14.836;2024-02-04T09:07:09;16.17;;;10.30;;
31724;SDS011;18306;40.960;14.836;2024-02-04T09:09:36;14.52;;;9.50;;
31724;SDS011;18306;40.960;14.836;2024-02-04T09:12:04;15.10;;;10.27;;
31724;SDS011;18306;40.960;14.836;2024-02-04T09:14:31;13.70;;;8.23;;
31724;SDS011;18306;40.960;14.836;2024-02-04T09:16:58;13.85;;;8.68;;
31724;SDS011;18306;40.960;14.836;2024-02-04T09:19:25;17.30;;;13.85;;
31724;SDS011;18306;40.960;14.836;2024-02-04T09:21:52;13.93;;;9.77;;
31724;SDS011;18306;40.960;14.836;2024-02-04T09:24:19;12.38;;;7.50;;
31724;SDS011;18306;40.960;14.836;2024-02-04T09:26:46;14.50;;;9.43;;
31724;SDS011;18306;40.960;14.836;2024-02-04T09:29:14;13.67;;;8.70;;
31724;SDS011;18306;40.960;14.836;2024-02-04T09:31:41;12.82;;;8.07;;
31724;SDS011;18306;40.960;14.836;2024-02-04T09:34:08;11.97;;;6.83;;
31724;SDS011;18306;40.960;14.836;2024-02-04T09:36:35;10.83;;;6.87;;
31724;SDS011;18306;40.960;14.836;2024-02-04T09:39:02;13.93;;;6.90;;
31724;SDS011;18306;40.960;14.836;2024-02-04T09:41:29;14.02;;;7.53;;
31724;SDS011;18306;40.960;14.836;2024-02-04T09:43:56;11.75;;;6.72;;
31724;SDS011;18306;40.960;14.836;2024-02-04T09:46:25;12.07;;;7.60;;
31724;SDS011;18306;40.960;14.836;2024-02-04T09:48:52;18.02;;;7.90;;
31724;SDS011;18306;40.960;14.836;2024-02-04T09:51:21;14.43;;;7.60;;
31724;SDS011;18306;40.960;14.836;2024-02-04T09:53:52;14.35;;;7.30;;
31724;SDS011;18306;40.960;14.836;2024-02-04T09:56:21;14.82;;;7.65;;
31724;SDS011;18306;40.960;14.836;2024-02-04T09:58:55;15.73;;;7.65;;
31724;SDS011;18306;40.960;14.836;2024-02-04T10:01:26;14.88;;;7.68;;
31724;SDS011;18306;40.960;14.836;2024-02-04T10:03:53;14.45;;;7.82;;
31724;SDS011;18306;40.960;14.836;2024-02-04T10:06:20;14.35;;;6.82;;
31724;SDS011;18306;40.960;14.836;2024-02-04T10:08:47;11.87;;;6.13;;
31724;SDS011;18306;40.960;14.836;2024-02-04T10:11:14;10.57;;;6.35;;
31724;SDS011;18306;40.960;14.836;2024-02-04T10:13:42;40.85;;;25.75;;
31724;SDS011;18306;40.960;14.836;2024-02-04T10:16:13;28.40;;;17.95;;
31724;SDS011;18306;40.960;14.836;2024-02-04T10:18:41;16.95;;;8.77;;
31724;SDS011;18306;40.960;14.836;2024-02-04T10:21:17;14.52;;;10.20;;
31724;SDS011;18306;40.960;14.836;2024-02-04T10:23:50;13.40;;;9.55;;
31724;SDS011;18306;40.960;14.836;2024-02-04T10:26:17;12.63;;;6.03;;
31724;SDS011;18306;40.960;14.836;2024-02-04T10:28:48;13.38;;;7.15;;
31724;SDS011;18306;40.960;14.836;2024-02-04T10:31:16;16.63;;;7.35;;
31724;SDS011;18306;40.960;14.836;2024-02-04T10:33:43;13.43;;;6.47;;
31724;SDS011;18306;40.960;14.836;2024-02-04T10:36:10;14.77;;;6.68;;
31724;SDS011;18306;40.960;14.836;2024-02-04T10:38:38;13.67;;;6.50;;
31724;SDS011;18306;40.960;14.836;2024-02-04T10:41:05;11.27;;;6.22;;
31724;SDS011;18306;40.960;14.836;2024-02-04T10:43:33;12.50;;;6.10;;
31724;SDS011;18306;40.960;14.836;2024-02-04T10:46:04;13.05;;;5.80;;
31724;SDS011;18306;40.960;14.836;2024-02-04T10:48:51;12.70;;;6.43;;
31724;SDS011;18306;40.960;14.836;2024-02-04T10:51:23;11.82;;;6.10;;
31724;SDS011;18306;40.960;14.836;2024-02-04T10:53:55;11.73;;;5.95;;
31724;SDS011;18306;40.960;14.836;2024-02-04T10:56:35;11.80;;;6.38;;
31724;SDS011;18306;40.960;14.836;2024-02-04T10:59:04;13.90;;;6.83;;
31724;SDS011;18306;40.960;14.836;2024-02-04T11:01:34;17.25;;;9.02;;
31724;SDS011;18306;40.960;14.836;2024-02-04T11:07:04;18.80;;;9.85;;
31724;SDS011;18306;40.960;14.836;2024-02-04T11:09:33;18.80;;;10.20;;
31724;SDS011;18306;40.960;14.836;2024-02-04T11:12:01;12.90;;;7.60;;
31724;SDS011;18306;40.960;14.836;2024-02-04T11:14:36;17.40;;;11.43;;
31724;SDS011;18306;40.960;14.836;2024-02-04T11:17:24;12.60;;;7.55;;
31724;SDS011;18306;40.960;14.836;2024-02-04T11:26:20;13.10;;;7.60;;
31724;SDS011;18306;40.960;14.836;2024-02-04T11:28:47;11.45;;;6.93;;
31724;SDS011;18306;40.960;14.836;2024-02-04T11:31:15;14.05;;;7.00;;
31724;SDS011;18306;40.960;14.836;2024-02-04T11:33:54;29.35;;;20.98;;
31724;SDS011;18306;40.960;14.836;2024-02-04T11:36:25;17.00;;;10.48;;
31724;SDS011;18306;40.960;14.836;2024-02-04T11:38:54;13.35;;;7.95;;
31724;SDS011;18306;40.960;14.836;2024-02-04T11:41:24;15.73;;;9.73;;
31724;SDS011;18306;40.960;14.836;2024-02-04T11:44:00;17.67;;;10.40;;
31724;SDS011;18306;40.960;14.836;2024-02-04T11:46:45;17.17;;;9.90;;
31724;SDS011;18306;40.960;14.836;2024-02-04T11:49:24;26.98;;;18.88;;
31724;SDS011;18306;40.960;14.836;2024-02-04T11:51:56;14.88;;;8.18;;
31724;SDS011;18306;40.960;14.836;2024-02-04T11:54:35;15.88;;;8.38;;
31724;SDS011;18306;40.960;14.836;2024-02-04T11:57:16;14.57;;;8.05;;
31724;SDS011;18306;40.960;14.836;2024-02-04T11:59:44;14.65;;;9.25;;
31724;SDS011;18306;40.960;14.836;2024-02-04T12:02:13;12.73;;;8.02;;
31724;SDS011;18306;40.960;14.836;2024-02-04T12:04:44;18.87;;;10.50;;
31724;SDS011;18306;40.960;14.836;2024-02-04T12:07:21;13.68;;;8.07;;
31724;SDS011;18306;40.960;14.836;2024-02-04T12:09:55;14.67;;;7.63;;
31724;SDS011;18306;40.960;14.836;2024-02-04T12:12:23;13.68;;;7.25;;
31724;SDS011;18306;40.960;14.836;2024-02-04T12:14:53;11.63;;;7.22;;
31724;SDS011;18306;40.960;14.836;2024-02-04T12:17:20;16.25;;;7.93;;
31724;SDS011;18306;40.960;14.836;2024-02-04T12:19:48;13.52;;;8.27;;
31724;SDS011;18306;40.960;14.836;2024-02-04T12:22:17;12.70;;;8.48;;
31724;SDS011;18306;40.960;14.836;2024-02-04T12:24:45;14.38;;;9.27;;
31724;SDS011;18306;40.960;14.836;2024-02-04T12:27:15;12.85;;;8.15;;
31724;SDS011;18306;40.960;14.836;2024-02-04T12:29:50;15.77;;;8.35;;
31724;SDS011;18306;40.960;14.836;2024-02-04T12:32:19;11.63;;;7.32;;
31724;SDS011;18306;40.960;14.836;2024-02-04T12:34:47;13.48;;;8.07;;
31724;SDS011;18306;40.960;14.836;2024-02-04T12:37:22;14.80;;;8.48;;
31724;SDS011;18306;40.960;14.836;2024-02-04T12:39:50;12.20;;;6.68;;
31724;SDS011;18306;40.960;14.836;2024-02-04T12:42:17;14.70;;;8.10;;
31724;SDS011;18306;40.960;14.836;2024-02-04T12:44:46;11.85;;;8.32;;
31724;SDS011;18306;40.960;14.836;2024-02-04T12:47:14;12.80;;;7.45;;
31724;SDS011;18306;40.960;14.836;2024-02-04T12:49:49;13.00;;;8.37;;
31724;SDS011;18306;40.960;14.836;2024-02-04T12:52:23;13.77;;;8.03;;
31724;SDS011;18306;40.960;14.836;2024-02-04T12:54:50;14.27;;;9.20;;
31724;SDS011;18306;40.960;14.836;2024-02-04T12:57:22;13.48;;;7.65;;
31724;SDS011;18306;40.960;14.836;2024-02-04T13:00:03;17.00;;;9.48;;
31724;SDS011;18306;40.960;14.836;2024-02-04T13:02:32;21.00;;;11.98;;
31724;SDS011;18306;40.960;14.836;2024-02-04T13:05:00;15.35;;;9.73;;
31724;SDS011;18306;40.960;14.836;2024-02-04T13:07:28;17.50;;;10.07;;
31724;SDS011;18306;40.960;14.836;2024-02-04T13:09:58;16.67;;;9.88;;
31724;SDS011;18306;40.960;14.836;2024-02-04T13:12:26;14.02;;;9.43;;
31724;SDS011;18306;40.960;14.836;2024-02-04T13:14:53;15.07;;;10.05;;
31724;SDS011;18306;40.960;14.836;2024-02-04T13:17:20;17.30;;;11.30;;
31724;SDS011;18306;40.960;14.836;2024-02-04T13:19:47;15.98;;;10.07;;
31724;SDS011;18306;40.960;14.836;2024-02-04T13:22:15;15.90;;;10.30;;
31724;SDS011;18306;40.960;14.836;2024-02-04T13:24:42;22.10;;;13.18;;
31724;SDS011;18306;40.960;14.836;2024-02-04T13:27:09;15.10;;;9.88;;
31724;SDS011;18306;40.960;14.836;2024-02-04T13:29:36;20.02;;;12.32;;
31724;SDS011;18306;40.960;14.836;2024-02-04T13:32:03;41.00;;;21.20;;
31724;SDS011;18306;40.960;14.836;2024-02-04T13:34:34;42.13;;;20.67;;
31724;SDS011;18306;40.960;14.836;2024-02-04T13:37:07;40.28;;;22.67;;
31724;SDS011;18306;40.960;14.836;2024-02-04T13:39:35;46.75;;;26.45;;
31724;SDS011;18306;40.960;14.836;2024-02-04T13:42:02;40.28;;;22.65;;
31724;SDS011;18306;40.960;14.836;2024-02-04T13:44:29;53.33;;;32.93;;
31724;SDS011;18306;40.960;14.836;2024-02-04T13:46:58;60.13;;;35.13;;
31724;SDS011;18306;40.960;14.836;2024-02-04T13:49:25;40.60;;;25.63;;
31724;SDS011;18306;40.960;14.836;2024-02-04T13:51:53;41.17;;;24.52;;
31724;SDS011;18306;40.960;14.836;2024-02-04T13:54:22;31.77;;;20.75;;
31724;SDS011;18306;40.960;14.836;2024-02-04T13:56:53;65.70;;;40.33;;
31724;SDS011;18306;40.960;14.836;2024-02-04T13:59:22;40.80;;;26.20;;
31724;SDS011;18306;40.960;14.836;2024-02-04T14:01:50;47.40;;;32.10;;
31724;SDS011;18306;40.960;14.836;2024-02-04T14:04:18;37.28;;;24.85;;
31724;SDS011;18306;40.960;14.836;2024-02-04T14:06:46;27.98;;;19.83;;
31724;SDS011;18306;40.960;14.836;2024-02-04T14:09:14;23.02;;;16.85;;
31724;SDS011;18306;40.960;14.836;2024-02-04T14:11:44;24.13;;;15.43;;
31724;SDS011;18306;40.960;14.836;2024-02-04T14:14:12;23.30;;;16.23;;
31724;SDS011;18306;40.960;14.836;2024-02-04T14:16:39;17.75;;;11.00;;
31724;SDS011;18306;40.960;14.836;2024-02-04T14:19:07;20.05;;;12.07;;
31724;SDS011;18306;40.960;14.836;2024-02-04T14:21:39;16.15;;;10.23;;
31724;SDS011;18306;40.960;14.836;2024-02-04T14:24:09;19.53;;;12.77;;
31724;SDS011;18306;40.960;14.836;2024-02-04T14:26:42;15.73;;;10.30;;
31724;SDS011;18306;40.960;14.836;2024-02-04T14:29:10;18.45;;;11.05;;
31724;SDS011;18306;40.960;14.836;2024-02-04T14:31:45;18.83;;;12.20;;
31724;SDS011;18306;40.960;14.836;2024-02-04T14:34:12;19.52;;;12.57;;
31724;SDS011;18306;40.960;14.836;2024-02-04T14:36:40;20.38;;;11.90;;